createdAt,value
2018-09-04T00:00:49.178Z,1010.2
2018-09-04T00:01:51.291Z,1010.2
2018-09-04T00:02:53.422Z,1010.2
2018-09-04T00:03:55.521Z,1010.2
2018-09-04T00:04:57.640Z,1010.2
2018-09-04T00:05:59.779Z,1010.2
2018-09-04T00:07:01.881Z,1010.2
2018-09-04T00:08:03.990Z,1010.2
2018-09-04T00:09:06.100Z,1010.2
2018-09-04T00:10:08.217Z,1010.2
2018-09-04T00:11:10.341Z,1010.1
2018-09-04T00:12:13.195Z,1010.1
2018-09-04T00:13:15.304Z,1010.1
2018-09-04T00:14:17.413Z,1010.1
2018-09-04T00:15:19.920Z,1010.1
2018-09-04T00:16:22.025Z,1010.1
2018-09-04T00:17:24.159Z,1010.1
2018-09-04T00:18:26.278Z,1010.1
2018-09-04T00:19:29.047Z,1010.1
2018-09-04T00:20:31.162Z,1010.1
2018-09-04T00:21:33.272Z,1010
2018-09-04T00:22:35.394Z,1010.1
2018-09-04T00:23:37.506Z,1010.1
2018-09-04T00:24:39.721Z,1010.1
2018-09-04T00:25:41.851Z,1010.1
2018-09-04T00:26:43.946Z,1010
2018-09-04T00:27:46.070Z,1010.1
2018-09-04T00:28:48.178Z,1010.1
2018-09-04T00:29:50.279Z,1010
2018-09-04T00:30:52.382Z,1010
2018-09-04T00:31:54.794Z,1010
2018-09-04T00:32:56.896Z,1010
2018-09-04T00:33:59.009Z,1010
2018-09-04T00:35:01.124Z,1010
2018-09-04T00:36:03.536Z,1010
2018-09-04T00:37:06.050Z,1010
2018-09-04T00:38:08.160Z,1010
2018-09-04T00:39:10.263Z,1010
2018-09-04T00:40:12.654Z,1010
2018-09-04T00:41:14.778Z,1010
2018-09-04T00:42:17.186Z,1010
2018-09-04T00:43:19.294Z,1010
2018-09-04T00:44:21.689Z,1010
2018-09-04T00:45:23.784Z,1010
2018-09-04T00:46:25.890Z,1010
2018-09-04T00:47:28.008Z,1010
2018-09-04T00:48:30.100Z,1010
2018-09-04T00:49:32.220Z,1010
2018-09-04T00:50:34.331Z,1010
2018-09-04T00:51:37.018Z,1010
2018-09-04T00:52:39.730Z,1010
2018-09-04T00:53:41.843Z,1009.9
2018-09-04T00:54:44.241Z,1010
2018-09-04T00:55:46.348Z,1010
2018-09-04T00:56:48.488Z,1010
2018-09-04T00:57:50.608Z,1010
2018-09-04T00:58:53.054Z,1010
2018-09-04T00:59:55.449Z,1010
2018-09-04T01:00:57.541Z,1010
2018-09-04T01:01:59.661Z,1010
2018-09-04T01:03:02.158Z,1009.9
2018-09-04T01:04:04.614Z,1010
2018-09-04T01:05:06.714Z,1010
2018-09-04T01:06:09.116Z,1010
2018-09-04T01:07:11.608Z,1010
2018-09-04T01:08:14.013Z,1010
2018-09-04T01:09:16.418Z,1010
2018-09-04T01:10:18.532Z,1010
2018-09-04T01:11:20.640Z,1010
2018-09-04T01:12:22.750Z,1010
2018-09-04T01:13:24.858Z,1010.1
2018-09-04T01:14:26.978Z,1010
2018-09-04T01:15:29.087Z,1010
2018-09-04T01:16:31.494Z,1010.1
2018-09-04T01:17:33.616Z,1010
2018-09-04T01:18:36.112Z,1010
2018-09-04T01:19:38.219Z,1010
2018-09-04T01:20:40.337Z,1010
2018-09-04T01:21:42.430Z,1010
2018-09-04T01:22:44.540Z,1010
2018-09-04T01:23:46.664Z,1010
2018-09-04T01:24:48.758Z,1010
2018-09-04T01:25:50.881Z,1010
2018-09-04T01:26:52.982Z,1010
2018-09-04T01:27:55.090Z,1010
2018-09-04T01:28:57.195Z,1010
2018-09-04T01:29:59.305Z,1010
2018-09-04T01:31:01.701Z,1010
2018-09-04T01:32:03.818Z,1010
2018-09-04T01:33:05.935Z,1010
2018-09-04T01:34:08.029Z,1010
2018-09-04T01:35:10.453Z,1010
2018-09-04T01:36:12.563Z,1010
2018-09-04T01:37:14.676Z,1010
2018-09-04T01:38:17.063Z,1010
2018-09-04T01:39:19.187Z,1010
2018-09-04T01:40:21.290Z,1010
2018-09-04T01:41:23.401Z,1010
2018-09-04T01:42:25.553Z,1010
2018-09-04T01:43:27.624Z,1010
2018-09-04T01:44:30.048Z,1009.9
2018-09-04T01:45:32.450Z,1009.9
2018-09-04T01:46:34.564Z,1009.9
2018-09-04T01:47:36.673Z,1010
2018-09-04T01:48:38.796Z,1009.9
2018-09-04T01:49:40.899Z,1009.9
2018-09-04T01:50:43.006Z,1009.9
2018-09-04T01:51:45.116Z,1009.9
2018-09-04T01:52:47.531Z,1009.9
2018-09-04T01:53:49.629Z,1010
2018-09-04T01:54:51.755Z,1009.9
2018-09-04T01:55:54.142Z,1010
2018-09-04T01:56:56.247Z,1009.9
2018-09-04T01:57:58.371Z,1010
2018-09-04T01:59:00.478Z,1009.9
2018-09-04T02:00:02.910Z,1009.9
2018-09-04T02:01:05.297Z,1009.9
2018-09-04T02:02:07.409Z,1009.9
2018-09-04T02:03:09.792Z,1009.9
2018-09-04T02:04:11.903Z,1009.9
2018-09-04T02:05:14.015Z,1009.9
2018-09-04T02:06:16.120Z,1009.9
2018-09-04T02:07:18.244Z,1009.8
2018-09-04T02:08:20.644Z,1009.8
2018-09-04T02:09:23.067Z,1009.8
2018-09-04T02:10:25.168Z,1009.8
2018-09-04T02:11:27.675Z,1009.8
2018-09-04T02:12:30.076Z,1009.8
2018-09-04T02:13:32.793Z,1009.8
2018-09-04T02:14:34.900Z,1009.8
2018-09-04T02:15:36.993Z,1009.8
2018-09-04T02:16:39.400Z,1009.8
2018-09-04T02:17:41.505Z,1009.8
2018-09-04T02:18:43.891Z,1009.8
2018-09-04T02:19:46.000Z,1009.7
2018-09-04T02:20:48.122Z,1009.7
2018-09-04T02:21:50.226Z,1009.7
2018-09-04T02:22:52.339Z,1009.7
2018-09-04T02:23:54.444Z,1009.7
2018-09-04T02:24:56.541Z,1009.7
2018-09-04T02:25:58.654Z,1009.7
2018-09-04T02:27:00.768Z,1009.7
2018-09-04T02:28:03.198Z,1009.7
2018-09-04T02:29:05.313Z,1009.7
2018-09-04T02:30:07.422Z,1009.7
2018-09-04T02:31:09.931Z,1009.7
2018-09-04T02:32:12.326Z,1009.7
2018-09-04T02:33:14.515Z,1009.8
2018-09-04T02:34:17.160Z,1009.8
2018-09-04T02:35:19.285Z,1009.8
2018-09-04T02:36:21.379Z,1009.8
2018-09-04T02:37:23.787Z,1009.7
2018-09-04T02:38:25.893Z,1009.7
2018-09-04T02:39:27.993Z,1009.7
2018-09-04T02:40:30.898Z,1009.8
2018-09-04T02:41:33.312Z,1009.7
2018-09-04T02:42:35.427Z,1009.7
2018-09-04T02:43:37.533Z,1009.8
2018-09-04T02:44:39.645Z,1009.8
2018-09-04T02:45:41.744Z,1009.8
2018-09-04T02:46:43.871Z,1009.7
2018-09-04T02:47:45.960Z,1009.7
2018-09-04T02:48:48.054Z,1009.8
2018-09-04T02:49:50.166Z,1009.7
2018-09-04T02:50:52.872Z,1009.7
2018-09-04T02:51:55.265Z,1009.7
2018-09-04T02:52:57.664Z,1009.7
2018-09-04T02:54:00.383Z,1009.7
2018-09-04T02:55:02.482Z,1009.7
2018-09-04T02:56:04.913Z,1009.7
2018-09-04T02:57:07.025Z,1009.7
2018-09-04T02:58:09.133Z,1009.7
2018-09-04T02:59:11.554Z,1009.7
2018-09-04T03:00:13.668Z,1009.7
2018-09-04T03:01:16.077Z,1009.7
2018-09-04T03:02:18.573Z,1009.6
2018-09-04T03:03:21.288Z,1009.6
2018-09-04T03:04:23.705Z,1009.6
2018-09-04T03:05:26.088Z,1009.6
2018-09-04T03:06:28.491Z,1009.6
2018-09-04T03:07:30.607Z,1009.6
2018-09-04T03:08:33.036Z,1009.6
2018-09-04T03:09:35.523Z,1009.6
2018-09-04T03:10:37.632Z,1009.6
2018-09-04T03:11:39.737Z,1009.6
2018-09-04T03:12:42.129Z,1009.6
2018-09-04T03:13:44.259Z,1009.6
2018-09-04T03:14:46.738Z,1009.6
2018-09-04T03:15:48.846Z,1009.5
2018-09-04T03:16:50.947Z,1009.6
2018-09-04T03:17:53.067Z,1009.6
2018-09-04T03:18:55.163Z,1009.6
2018-09-04T03:19:57.664Z,1009.7
2018-09-04T03:21:00.064Z,1009.6
2018-09-04T03:22:02.161Z,1009.6
2018-09-04T03:23:04.332Z,1009.6
2018-09-04T03:24:06.379Z,1009.6
2018-09-04T03:25:08.475Z,1009.6
2018-09-04T03:26:10.883Z,1009.7
2018-09-04T03:27:13.682Z,1009.6
2018-09-04T03:28:16.069Z,1009.7
2018-09-04T03:29:18.473Z,1009.6
2018-09-04T03:30:21.159Z,1009.7
2018-09-04T03:31:23.550Z,1009.6
2018-09-04T03:32:26.049Z,1009.6
2018-09-04T03:33:28.158Z,1009.6
2018-09-04T03:34:30.251Z,1009.6
2018-09-04T03:35:32.757Z,1009.6
2018-09-04T03:36:34.861Z,1009.5
2018-09-04T03:37:36.955Z,1009.6
2018-09-04T03:38:39.083Z,1009.6
2018-09-04T03:39:41.190Z,1009.6
2018-09-04T03:40:43.288Z,1009.5
2018-09-04T03:41:45.789Z,1009.6
2018-09-04T03:42:48.288Z,1009.6
2018-09-04T03:43:50.404Z,1009.6
2018-09-04T03:44:52.516Z,1009.6
2018-09-04T03:45:54.919Z,1009.6
2018-09-04T03:46:57.090Z,1009.6
2018-09-04T03:47:59.866Z,1009.6
2018-09-04T03:49:01.970Z,1009.7
2018-09-04T03:50:04.072Z,1009.7
2018-09-04T03:51:06.188Z,1009.7
2018-09-04T03:52:08.293Z,1009.7
2018-09-04T03:53:10.406Z,1009.7
2018-09-04T03:54:12.518Z,1009.6
2018-09-04T03:55:14.612Z,1009.7
2018-09-04T03:56:16.734Z,1009.6
2018-09-04T03:57:19.223Z,1009.6
2018-09-04T03:58:21.325Z,1009.7
2018-09-04T03:59:23.428Z,1009.7
2018-09-04T04:00:25.942Z,1009.7
2018-09-04T04:01:28.144Z,1009.7
2018-09-04T04:02:30.158Z,1009.7
2018-09-04T04:03:32.273Z,1009.7
2018-09-04T04:04:34.656Z,1009.7
2018-09-04T04:05:36.769Z,1009.7
2018-09-04T04:06:38.880Z,1009.7
2018-09-04T04:07:40.971Z,1009.7
2018-09-04T04:08:43.371Z,1009.7
2018-09-04T04:09:45.776Z,1009.7
2018-09-04T04:10:48.454Z,1009.7
2018-09-04T04:11:50.591Z,1009.7
2018-09-04T04:12:53.306Z,1009.7
2018-09-04T04:13:55.407Z,1009.7
2018-09-04T04:14:57.521Z,1009.7
2018-09-04T04:15:59.626Z,1009.7
2018-09-04T04:17:01.723Z,1009.7
2018-09-04T04:18:03.826Z,1009.7
2018-09-04T04:19:05.943Z,1009.7
2018-09-04T04:20:08.055Z,1009.7
2018-09-04T04:21:10.148Z,1009.7
2018-09-04T04:22:12.255Z,1009.7
2018-09-04T04:23:14.363Z,1009.7
2018-09-04T04:24:16.453Z,1009.7
2018-09-04T04:25:18.573Z,1009.7
2018-09-04T04:26:20.678Z,1009.7
2018-09-04T04:27:23.083Z,1009.6
2018-09-04T04:28:25.529Z,1009.6
2018-09-04T04:29:27.622Z,1009.6
2018-09-04T04:30:29.735Z,1009.6
2018-09-04T04:31:32.165Z,1009.6
2018-09-04T04:32:34.280Z,1009.6
2018-09-04T04:33:36.675Z,1009.6
2018-09-04T04:34:38.785Z,1009.7
2018-09-04T04:35:40.879Z,1009.6
2018-09-04T04:36:42.986Z,1009.6
2018-09-04T04:37:45.974Z,1009.6
2018-09-04T04:38:48.520Z,1009.6
2018-09-04T04:39:50.690Z,1009.7
2018-09-04T04:40:53.053Z,1009.6
2018-09-04T04:41:55.155Z,1009.7
2018-09-04T04:42:57.645Z,1009.7
2018-09-04T04:43:59.757Z,1009.7
2018-09-04T04:45:01.845Z,1009.7
2018-09-04T04:46:03.958Z,1009.7
2018-09-04T04:47:06.366Z,1009.7
2018-09-04T04:48:08.549Z,1009.7
2018-09-04T04:49:11.313Z,1009.7
2018-09-04T04:50:13.428Z,1009.7
2018-09-04T04:51:16.112Z,1009.7
2018-09-04T04:52:18.207Z,1009.7
2018-09-04T04:53:20.323Z,1009.7
2018-09-04T04:54:22.708Z,1009.8
2018-09-04T04:55:25.131Z,1009.8
2018-09-04T04:56:27.231Z,1009.7
2018-09-04T04:57:29.353Z,1009.8
2018-09-04T04:58:31.765Z,1009.8
2018-09-04T04:59:34.255Z,1009.8
2018-09-04T05:00:36.647Z,1009.8
2018-09-04T05:01:39.158Z,1009.8
2018-09-04T05:02:41.254Z,1009.8
2018-09-04T05:03:43.362Z,1009.8
2018-09-04T05:04:45.771Z,1009.8
2018-09-04T05:05:47.887Z,1009.9
2018-09-04T05:06:49.991Z,1009.9
2018-09-04T05:07:52.106Z,1009.8
2018-09-04T05:08:54.205Z,1009.9
2018-09-04T05:09:56.311Z,1009.9
2018-09-04T05:10:58.476Z,1009.9
2018-09-04T05:12:00.540Z,1009.8
2018-09-04T05:13:02.635Z,1009.8
2018-09-04T05:14:05.036Z,1009.9
2018-09-04T05:15:07.134Z,1009.9
2018-09-04T05:16:09.624Z,1009.9
2018-09-04T05:17:11.748Z,1009.9
2018-09-04T05:18:13.835Z,1009.9
2018-09-04T05:19:15.955Z,1009.9
2018-09-04T05:20:18.368Z,1009.9
2018-09-04T05:21:20.869Z,1009.9
2018-09-04T05:22:23.282Z,1009.9
2018-09-04T05:23:25.397Z,1009.9
2018-09-04T05:24:27.498Z,1010
2018-09-04T05:25:29.595Z,1010
2018-09-04T05:26:31.709Z,1009.9
2018-09-04T05:27:34.099Z,1009.9
2018-09-04T05:28:36.513Z,1009.9
2018-09-04T05:29:38.911Z,1009.9
2018-09-04T05:30:41.026Z,1010
2018-09-04T05:31:43.419Z,1010
2018-09-04T05:32:45.533Z,1010
2018-09-04T05:33:47.643Z,1010
2018-09-04T05:34:49.737Z,1010
2018-09-04T05:35:51.851Z,1010
2018-09-04T05:36:54.355Z,1010
2018-09-04T05:37:57.068Z,1010
2018-09-04T05:38:59.466Z,1009.9
2018-09-04T05:40:01.970Z,1009.9
2018-09-04T05:41:05.094Z,1009.9
2018-09-04T05:42:07.196Z,1010
2018-09-04T05:43:09.308Z,1009.9
2018-09-04T05:44:11.427Z,1010
2018-09-04T05:45:13.533Z,1010
2018-09-04T05:46:15.625Z,1010
2018-09-04T05:47:17.745Z,1010
2018-09-04T05:48:19.853Z,1010.1
2018-09-04T05:49:21.959Z,1010.1
2018-09-04T05:50:24.369Z,1010.1
2018-09-04T05:51:26.466Z,1010.1
2018-09-04T05:52:29.156Z,1010.1
2018-09-04T05:53:31.262Z,1010.1
2018-09-04T05:54:33.382Z,1010.1
2018-09-04T05:55:35.479Z,1010.1
2018-09-04T05:56:38.175Z,1010.2
2018-09-04T05:57:40.570Z,1010.2
2018-09-04T05:58:42.673Z,1010.2
2018-09-04T05:59:44.792Z,1010.1
2018-09-04T06:00:46.896Z,1010.1
2018-09-04T06:01:49.313Z,1010.1
2018-09-04T06:02:51.413Z,1010.1
2018-09-04T06:03:53.538Z,1010.1
2018-09-04T06:04:55.634Z,1010.1
2018-09-04T06:05:58.040Z,1010.1
2018-09-04T06:07:00.161Z,1010.1
2018-09-04T06:08:02.259Z,1010.2
2018-09-04T06:09:04.372Z,1010.2
2018-09-04T06:10:06.480Z,1010.2
2018-09-04T06:11:08.571Z,1010.2
2018-09-04T06:12:10.679Z,1010.2
2018-09-04T06:13:12.788Z,1010.2
2018-09-04T06:14:15.206Z,1010.2
2018-09-04T06:15:17.304Z,1010.2
2018-09-04T06:16:19.732Z,1010.1
2018-09-04T06:17:21.870Z,1010.1
2018-09-04T06:18:23.978Z,1010.1
2018-09-04T06:19:26.373Z,1010.1
2018-09-04T06:20:28.886Z,1010.1
2018-09-04T06:21:31.272Z,1010.1
2018-09-04T06:22:33.369Z,1010.1
2018-09-04T06:23:35.483Z,1010.1
2018-09-04T06:24:37.861Z,1010.1
2018-09-04T06:25:39.972Z,1010.2
2018-09-04T06:26:42.388Z,1010.2
2018-09-04T06:27:44.502Z,1010.1
2018-09-04T06:28:46.590Z,1010.1
2018-09-04T06:29:48.708Z,1010.2
2018-09-04T06:30:51.595Z,1010.2
2018-09-04T06:31:53.689Z,1010.1
2018-09-04T06:32:55.809Z,1010.2
2018-09-04T06:33:58.255Z,1010.1
2018-09-04T06:35:00.774Z,1010.1
2018-09-04T06:36:02.877Z,1010.1
2018-09-04T06:37:05.384Z,1010.1
2018-09-04T06:38:07.483Z,1010.2
2018-09-04T06:39:09.884Z,1010.2
2018-09-04T06:40:12.003Z,1010.2
2018-09-04T06:41:14.099Z,1010.2
2018-09-04T06:42:16.231Z,1010.1
2018-09-04T06:43:18.329Z,1010.1
2018-09-04T06:44:20.480Z,1010.2
2018-09-04T06:45:22.590Z,1010.2
2018-09-04T06:46:24.741Z,1010.2
2018-09-04T06:47:28.023Z,1010.2
2018-09-04T06:48:30.526Z,1010.2
2018-09-04T06:49:32.630Z,1010.2
2018-09-04T06:50:35.014Z,1010.3
2018-09-04T06:51:37.120Z,1010.3
2018-09-04T06:52:39.240Z,1010.2
2018-09-04T06:53:41.625Z,1010.2
2018-09-04T06:54:43.780Z,1010.3
2018-09-04T06:55:45.856Z,1010.2
2018-09-04T06:56:47.955Z,1010.2
2018-09-04T06:57:50.078Z,1010.2
2018-09-04T06:58:52.629Z,1010.2
2018-09-04T06:59:54.735Z,1010.2
2018-09-04T07:00:57.126Z,1010.2
2018-09-04T07:01:59.249Z,1010.2
2018-09-04T07:03:01.740Z,1010.2
2018-09-04T07:04:04.241Z,1010.2
2018-09-04T07:05:06.669Z,1010.2
2018-09-04T07:06:08.819Z,1010.2
2018-09-04T07:07:10.888Z,1010.2
2018-09-04T07:08:12.994Z,1010.2
2018-09-04T07:09:15.106Z,1010.2
2018-09-04T07:10:17.203Z,1010.2
2018-09-04T07:11:19.607Z,1010.3
2018-09-04T07:12:22.101Z,1010.2
2018-09-04T07:13:24.203Z,1010.2
2018-09-04T07:14:26.621Z,1010.2
2018-09-04T07:15:28.710Z,1010.3
2018-09-04T07:16:30.819Z,1010.2
2018-09-04T07:17:33.329Z,1010.3
2018-09-04T07:18:36.016Z,1010.2
2018-09-04T07:19:38.121Z,1010.2
2018-09-04T07:20:40.232Z,1010.3
2018-09-04T07:21:42.719Z,1010.3
2018-09-04T07:22:45.220Z,1010.3
2018-09-04T07:23:47.337Z,1010.3
2018-09-04T07:24:49.444Z,1010.3
2018-09-04T07:25:51.550Z,1010.3
2018-09-04T07:26:53.668Z,1010.3
2018-09-04T07:27:56.153Z,1010.3
2018-09-04T07:28:58.258Z,1010.4
2018-09-04T07:30:00.753Z,1010.4
2018-09-04T07:31:03.457Z,1010.3
2018-09-04T07:32:05.560Z,1010.4
2018-09-04T07:33:07.667Z,1010.4
2018-09-04T07:34:10.104Z,1010.3
2018-09-04T07:35:12.185Z,1010.3
2018-09-04T07:36:14.289Z,1010.3
2018-09-04T07:37:16.708Z,1010.3
2018-09-04T07:38:18.872Z,1010.3
2018-09-04T07:39:20.925Z,1010.3
2018-09-04T07:40:23.394Z,1010.3
2018-09-04T07:41:25.821Z,1010.3
2018-09-04T07:42:27.932Z,1010.3
2018-09-04T07:43:30.035Z,1010.3
2018-09-04T07:44:32.470Z,1010.3
2018-09-04T07:45:34.572Z,1010.3
2018-09-04T07:46:36.683Z,1010.3
2018-09-04T07:47:38.840Z,1010.4
2018-09-04T07:48:40.943Z,1010.3
2018-09-04T07:49:43.552Z,1010.3
2018-09-04T07:50:45.738Z,1010.3
2018-09-04T07:51:48.247Z,1010.3
2018-09-04T07:52:50.734Z,1010.3
2018-09-04T07:53:52.910Z,1010.3
2018-09-04T07:54:55.372Z,1010.3
2018-09-04T07:55:57.491Z,1010.3
2018-09-04T07:56:59.615Z,1010.3
2018-09-04T07:58:02.035Z,1010.3
2018-09-04T07:59:04.153Z,1010.3
2018-09-04T08:00:06.311Z,1010.2
2018-09-04T08:01:08.413Z,1010.3
2018-09-04T08:02:10.526Z,1010.2
2018-09-04T08:03:12.742Z,1010.3
2018-09-04T08:04:14.928Z,1010.3
2018-09-04T08:05:17.076Z,1010.3
2018-09-04T08:06:19.577Z,1010.3
2018-09-04T08:07:21.747Z,1010.3
2018-09-04T08:08:23.853Z,1010.2
2018-09-04T08:09:26.018Z,1010.3
2018-09-04T08:10:28.123Z,1010.3
2018-09-04T08:11:30.924Z,1010.3
2018-09-04T08:12:33.024Z,1010.3
2018-09-04T08:13:35.147Z,1010.3
2018-09-04T08:14:37.270Z,1010.3
2018-09-04T08:15:39.458Z,1010.3
2018-09-04T08:16:41.569Z,1010.3
2018-09-04T08:17:43.731Z,1010.3
2018-09-04T08:18:46.251Z,1010.3
2018-09-04T08:19:48.666Z,1010.3
2018-09-04T08:20:50.848Z,1010.3
2018-09-04T08:21:53.440Z,1010.3
2018-09-04T08:22:55.842Z,1010.3
2018-09-04T08:23:58.079Z,1010.3
2018-09-04T08:25:00.586Z,1010.3
2018-09-04T08:26:03.105Z,1010.4
2018-09-04T08:27:05.550Z,1010.3
2018-09-04T08:28:07.658Z,1010.4
2018-09-04T08:29:09.799Z,1010.4
2018-09-04T08:30:11.972Z,1010.4
2018-09-04T08:31:14.482Z,1010.4
2018-09-04T08:32:16.933Z,1010.3
2018-09-04T08:33:19.437Z,1010.3
2018-09-04T08:34:22.997Z,1010.4
2018-09-04T08:35:25.097Z,1010.3
2018-09-04T08:36:27.292Z,1010.3
2018-09-04T08:37:29.387Z,1010.3
2018-09-04T08:38:31.510Z,1010.3
2018-09-04T08:39:33.628Z,1010.3
2018-09-04T08:40:35.748Z,1010.3
2018-09-04T08:41:37.888Z,1010.3
2018-09-04T08:42:40.011Z,1010.2
2018-09-04T08:43:42.126Z,1010.3
2018-09-04T08:44:44.234Z,1010.3
2018-09-04T08:45:46.361Z,1010.3
2018-09-04T08:46:48.478Z,1010.3
2018-09-04T08:47:51.161Z,1010.3
2018-09-04T08:48:53.182Z,1010.2
2018-09-04T08:49:55.288Z,1010.3
2018-09-04T08:50:57.408Z,1010.3
2018-09-04T08:51:59.533Z,1010.3
2018-09-04T08:53:01.639Z,1010.2
2018-09-04T08:54:03.770Z,1010.3
2018-09-04T08:55:05.878Z,1010.2
2018-09-04T08:56:07.996Z,1010.2
2018-09-04T08:57:10.120Z,1010.2
2018-09-04T08:58:12.634Z,1010.2
2018-09-04T08:59:14.741Z,1010.3
2018-09-04T09:00:16.875Z,1010.2
2018-09-04T09:01:18.985Z,1010.2
2018-09-04T09:02:21.117Z,1010.2
2018-09-04T09:03:23.243Z,1010.3
2018-09-04T09:04:25.366Z,1010.3
2018-09-04T09:05:27.502Z,1010.2
2018-09-04T09:06:29.606Z,1010.2
2018-09-04T09:07:31.722Z,1010.2
2018-09-04T09:08:33.834Z,1010.1
2018-09-04T09:09:36.249Z,1010.1
2018-09-04T09:10:38.364Z,1010.1
2018-09-04T09:11:40.480Z,1010.2
2018-09-04T09:12:42.612Z,1010.1
2018-09-04T09:13:44.739Z,1010.2
2018-09-04T09:14:47.156Z,1010.1
2018-09-04T09:15:49.288Z,1010.2
2018-09-04T09:16:51.536Z,1010.1
2018-09-04T09:17:54.033Z,1010.1
2018-09-04T09:18:56.167Z,1010.2
2018-09-04T09:19:58.275Z,1010.1
2018-09-04T09:21:00.394Z,1010.2
2018-09-04T09:22:02.503Z,1010.1
2018-09-04T09:23:04.636Z,1010.1
2018-09-04T09:24:07.033Z,1010
2018-09-04T09:25:09.479Z,1010.1
2018-09-04T09:26:11.618Z,1010
2018-09-04T09:27:13.733Z,1010
2018-09-04T09:28:15.857Z,1010.1
2018-09-04T09:29:17.977Z,1010.1
2018-09-04T09:30:20.665Z,1010.1
2018-09-04T09:31:22.787Z,1010.1
2018-09-04T09:32:24.909Z,1010.1
2018-09-04T09:33:27.032Z,1010.1
2018-09-04T09:34:29.159Z,1010.1
2018-09-04T09:35:31.279Z,1010.1
2018-09-04T09:36:33.484Z,1010.1
2018-09-04T09:37:35.956Z,1010.1
2018-09-04T09:38:38.084Z,1010.2
2018-09-04T09:39:40.488Z,1010.1
2018-09-04T09:40:42.612Z,1010.2
2018-09-04T09:41:44.732Z,1010.1
2018-09-04T09:42:46.843Z,1010.1
2018-09-04T09:43:48.977Z,1010.1
2018-09-04T09:44:51.100Z,1010
2018-09-04T09:45:53.222Z,1010.1
2018-09-04T09:46:55.650Z,1010.1
2018-09-04T09:47:57.780Z,1010.1
2018-09-04T09:48:59.896Z,1010.1
2018-09-04T09:50:02.324Z,1010.1
2018-09-04T09:51:04.456Z,1010.1
2018-09-04T09:52:06.864Z,1010.1
2018-09-04T09:53:09.361Z,1010.1
2018-09-04T09:54:12.173Z,1010
2018-09-04T09:55:14.322Z,1010
2018-09-04T09:56:16.588Z,1010
2018-09-04T09:57:18.555Z,1010.1
2018-09-04T09:58:20.669Z,1010.1
2018-09-04T09:59:22.845Z,1010.1
2018-09-04T10:00:25.399Z,1010
2018-09-04T10:01:27.929Z,1010.1
2018-09-04T10:02:30.032Z,1010
2018-09-04T10:03:32.149Z,1010.1
2018-09-04T10:04:34.277Z,1010
2018-09-04T10:05:36.408Z,1010
2018-09-04T10:06:38.860Z,1010
2018-09-04T10:07:41.045Z,1010
2018-09-04T10:08:43.118Z,1009.9
2018-09-04T10:09:45.584Z,1010
2018-09-04T10:10:47.701Z,1010
2018-09-04T10:11:49.840Z,1010
2018-09-04T10:12:51.947Z,1010
2018-09-04T10:13:54.089Z,1010
2018-09-04T10:14:56.214Z,1010
2018-09-04T10:15:58.347Z,1010
2018-09-04T10:17:00.480Z,1010
2018-09-04T10:18:02.984Z,1010
2018-09-04T10:19:05.111Z,1010
2018-09-04T10:20:07.623Z,1010
2018-09-04T10:21:10.107Z,1010
2018-09-04T10:22:12.515Z,1010
2018-09-04T10:23:14.936Z,1010
2018-09-04T10:24:17.065Z,1010
2018-09-04T10:25:19.174Z,1010
2018-09-04T10:26:21.331Z,1010
2018-09-04T10:27:23.442Z,1010
2018-09-04T10:28:25.570Z,1010
2018-09-04T10:29:27.689Z,1010
2018-09-04T10:30:29.829Z,1010
2018-09-04T10:31:31.952Z,1010
2018-09-04T10:32:34.074Z,1010
2018-09-04T10:33:36.536Z,1010
2018-09-04T10:34:38.646Z,1010
2018-09-04T10:35:40.823Z,1009.9
2018-09-04T10:36:43.365Z,1009.9
2018-09-04T10:37:45.500Z,1009.9
2018-09-04T10:38:47.625Z,1009.9
2018-09-04T10:39:49.763Z,1009.9
2018-09-04T10:40:52.180Z,1009.9
2018-09-04T10:41:54.597Z,1009.9
2018-09-04T10:42:56.745Z,1009.9
2018-09-04T10:43:58.876Z,1009.9
2018-09-04T10:45:01.032Z,1009.9
2018-09-04T10:46:03.209Z,1009.9
2018-09-04T10:47:06.017Z,1009.9
2018-09-04T10:48:08.136Z,1009.9
2018-09-04T10:49:10.590Z,1009.9
2018-09-04T10:50:12.706Z,1009.9
2018-09-04T10:51:14.843Z,1009.9
2018-09-04T10:52:16.983Z,1009.9
2018-09-04T10:53:19.411Z,1009.9
2018-09-04T10:54:21.912Z,1009.8
2018-09-04T10:55:24.336Z,1009.9
2018-09-04T10:56:26.774Z,1009.9
2018-09-04T10:57:28.895Z,1009.9
2018-09-04T10:58:31.032Z,1009.8
2018-09-04T10:59:33.150Z,1009.8
2018-09-04T11:00:35.288Z,1009.8
2018-09-04T11:01:37.416Z,1009.8
2018-09-04T11:02:39.939Z,1009.8
2018-09-04T11:03:42.652Z,1009.8
2018-09-04T11:04:45.078Z,1009.8
2018-09-04T11:05:47.202Z,1009.9
2018-09-04T11:06:49.316Z,1009.8
2018-09-04T11:07:51.453Z,1009.8
2018-09-04T11:08:53.576Z,1009.8
2018-09-04T11:09:56.523Z,1009.8
2018-09-04T11:10:59.187Z,1009.8
2018-09-04T11:12:01.337Z,1009.8
2018-09-04T11:13:03.457Z,1009.8
2018-09-04T11:14:05.597Z,1009.8
2018-09-04T11:15:07.724Z,1009.8
2018-09-04T11:16:09.839Z,1009.8
2018-09-04T11:17:11.965Z,1009.8
2018-09-04T11:18:14.471Z,1009.7
2018-09-04T11:19:16.613Z,1009.8
2018-09-04T11:20:18.744Z,1009.7
2018-09-04T11:21:20.874Z,1009.8
2018-09-04T11:22:23.014Z,1009.8
2018-09-04T11:23:25.125Z,1009.7
2018-09-04T11:24:27.545Z,1009.7
2018-09-04T11:25:29.669Z,1009.8
2018-09-04T11:26:31.804Z,1009.7
2018-09-04T11:27:33.912Z,1009.7
2018-09-04T11:28:36.047Z,1009.7
2018-09-04T11:29:38.182Z,1009.7
2018-09-04T11:30:40.386Z,1009.8
2018-09-04T11:31:42.463Z,1009.7
2018-09-04T11:32:44.871Z,1009.8
2018-09-04T11:33:47.001Z,1009.8
2018-09-04T11:34:49.414Z,1009.7
2018-09-04T11:35:51.564Z,1009.8
2018-09-04T11:36:54.069Z,1009.8
2018-09-04T11:37:56.493Z,1009.8
2018-09-04T11:38:59.012Z,1009.8
2018-09-04T11:40:01.123Z,1009.8
2018-09-04T11:41:03.261Z,1009.8
2018-09-04T11:42:05.389Z,1009.7
2018-09-04T11:43:07.506Z,1009.7
2018-09-04T11:44:09.631Z,1009.8
2018-09-04T11:45:12.066Z,1009.8
2018-09-04T11:46:14.577Z,1009.7
2018-09-04T11:47:16.716Z,1009.7
2018-09-04T11:48:18.847Z,1009.7
2018-09-04T11:49:20.964Z,1009.7
2018-09-04T11:50:23.093Z,1009.7
2018-09-04T11:51:25.229Z,1009.7
2018-09-04T11:52:27.444Z,1009.7
2018-09-04T11:53:29.485Z,1009.7
2018-09-04T11:54:31.620Z,1009.7
2018-09-04T11:55:34.026Z,1009.8
2018-09-04T11:56:36.169Z,1009.8
2018-09-04T11:57:38.584Z,1009.8
2018-09-04T11:58:41.096Z,1009.8
2018-09-04T11:59:43.251Z,1009.7
2018-09-04T12:00:45.361Z,1009.8
2018-09-04T12:01:47.777Z,1009.8
2018-09-04T12:02:49.901Z,1009.8
2018-09-04T12:03:52.039Z,1009.8
2018-09-04T12:04:54.738Z,1009.8
2018-09-04T12:05:57.042Z,1009.8
2018-09-04T12:06:59.619Z,1009.7
2018-09-04T12:08:01.758Z,1009.8
2018-09-04T12:09:04.157Z,1009.8
2018-09-04T12:10:06.298Z,1009.7
2018-09-04T12:11:08.419Z,1009.7
2018-09-04T12:12:10.993Z,1009.7
2018-09-04T12:13:13.905Z,1009.7
2018-09-04T12:14:16.338Z,1009.7
2018-09-04T12:15:18.849Z,1009.7
2018-09-04T12:16:20.989Z,1009.7
2018-09-04T12:17:23.114Z,1009.7
2018-09-04T12:18:25.237Z,1009.6
2018-09-04T12:19:27.378Z,1009.6
2018-09-04T12:20:29.502Z,1009.6
2018-09-04T12:21:31.924Z,1009.6
2018-09-04T12:22:34.454Z,1009.6
2018-09-04T12:23:36.869Z,1009.6
2018-09-04T12:24:38.998Z,1009.7
2018-09-04T12:25:41.141Z,1009.7
2018-09-04T12:26:43.857Z,1009.6
2018-09-04T12:27:46.279Z,1009.6
2018-09-04T12:28:48.701Z,1009.6
2018-09-04T12:29:50.831Z,1009.6
2018-09-04T12:30:52.956Z,1009.6
2018-09-04T12:31:55.094Z,1009.6
2018-09-04T12:32:57.222Z,1009.6
2018-09-04T12:33:59.367Z,1009.6
2018-09-04T12:35:02.027Z,1009.5
2018-09-04T12:36:04.165Z,1009.5
2018-09-04T12:37:06.596Z,1009.6
2018-09-04T12:38:08.709Z,1009.6
2018-09-04T12:39:10.850Z,1009.5
2018-09-04T12:40:13.271Z,1009.5
2018-09-04T12:41:15.732Z,1009.5
2018-09-04T12:42:18.129Z,1009.5
2018-09-04T12:43:20.277Z,1009.5
2018-09-04T12:44:22.544Z,1009.5
2018-09-04T12:45:24.954Z,1009.5
2018-09-04T12:46:27.104Z,1009.5
2018-09-04T12:47:29.508Z,1009.5
2018-09-04T12:48:32.016Z,1009.5
2018-09-04T12:49:34.092Z,1009.4
2018-09-04T12:50:36.223Z,1009.4
2018-09-04T12:51:38.346Z,1009.5
2018-09-04T12:52:40.487Z,1009.4
2018-09-04T12:53:42.994Z,1009.5
2018-09-04T12:54:45.187Z,1009.5
2018-09-04T12:55:47.621Z,1009.5
2018-09-04T12:56:49.745Z,1009.5
2018-09-04T12:57:51.861Z,1009.5
2018-09-04T12:58:54.005Z,1009.5
2018-09-04T12:59:56.669Z,1009.6
2018-09-04T13:00:58.626Z,1009.6
2018-09-04T13:02:00.759Z,1009.6
2018-09-04T13:03:02.871Z,1009.5
2018-09-04T13:04:05.004Z,1009.6
2018-09-04T13:05:07.126Z,1009.6